Lorenzo, Nebraska
Current Conditions -  °F | °C
As of 9:53 AM on Thursday 27 Nov 2014 (Local Time) from KSNY Reporting Station
Clear Clear  
Wind Chill: 39°   Ceiling: Unl
Heat Index: 43°   Visibility: 10mi
Dew Point: 30°   Wind: 6mph
Humidity: 60%   Direction: 240°WSW
Pressure: 30.15"   Gusts: NA
Location:  41.108°N, 103.012°W
Report Text: KSNY 271653Z AUTO 24005KT 10SM CLR 06/M01 A3015 RMK AO2 SLP239 T00611011
Loading
Personal Weather Stations






























Interactive Weather Map New forecast layout! Learn more

10-Day Weather Forecast

Advertisements
Track Severe Weather on mobile